createdAt,value
2019-04-16T00:02:10.483Z,5.03
2019-04-16T00:07:30.741Z,5.60
2019-04-16T00:12:56.764Z,5.31
2019-04-16T00:18:18.518Z,5.27
2019-04-16T00:23:37.300Z,5.01
2019-04-16T00:28:55.855Z,4.96
2019-04-16T00:34:14.596Z,4.94
2019-04-16T00:39:33.098Z,5.05
2019-04-16T00:44:51.567Z,4.81
2019-04-16T00:50:10.294Z,4.67
2019-04-16T00:55:28.915Z,4.59
2019-04-16T01:00:47.457Z,4.83
2019-04-16T01:06:07.943Z,4.62
2019-04-16T01:11:26.420Z,4.47
2019-04-16T01:16:45.040Z,4.18
2019-04-16T01:22:03.662Z,4.11
2019-04-16T01:27:28.578Z,3.94
2019-04-16T01:32:45.784Z,3.83
2019-04-16T01:38:21.308Z,3.74
2019-04-16T01:43:40.281Z,3.73
2019-04-16T01:48:58.756Z,3.66
2019-04-16T01:54:17.295Z,3.65
2019-04-16T01:59:36.460Z,3.47
2019-04-16T02:04:55.021Z,3.11
2019-04-16T02:10:13.801Z,2.95
2019-04-16T02:15:32.539Z,2.75
2019-04-16T02:20:51.069Z,2.72
2019-04-16T02:26:09.609Z,2.65
2019-04-16T02:31:28.158Z,2.60
2019-04-16T02:36:46.716Z,2.72
2019-04-16T02:42:05.271Z,2.87
2019-04-16T02:47:23.865Z,2.60
2019-04-16T02:52:53.112Z,2.42
2019-04-16T02:58:16.026Z,2.33
2019-04-16T03:03:39.280Z,2.16
2019-04-16T03:08:58.018Z,2.35
2019-04-16T03:14:16.587Z,2.06
2019-04-16T03:19:51.001Z,2.14
2019-04-16T03:25:12.637Z,1.98
2019-04-16T03:30:28.222Z,2.06
2019-04-16T03:35:46.860Z,1.87
2019-04-16T03:41:05.505Z,1.90
2019-04-16T03:46:24.044Z,1.76
2019-04-16T03:51:42.594Z,1.51
2019-04-16T03:57:02.256Z,1.65
2019-04-16T04:02:22.932Z,1.83
2019-04-16T04:07:44.201Z,1.65
2019-04-16T04:13:04.774Z,1.64
2019-04-16T04:18:22.174Z,1.41
2019-04-16T04:23:40.639Z,1.47
2019-04-16T04:28:59.116Z,1.65
2019-04-16T04:34:17.849Z,1.29
2019-04-16T04:39:36.661Z,1.32
2019-04-16T04:44:55.286Z,1.64
2019-04-16T04:50:13.896Z,1.41
2019-04-16T04:55:33.056Z,1.34
2019-04-16T05:00:51.700Z,1.43
2019-04-16T05:06:14.671Z,1.93
2019-04-16T05:11:33.287Z,3.09
2019-04-16T05:16:51.836Z,4.73
2019-04-16T05:22:10.310Z,6.36
2019-04-16T05:27:29.494Z,6.84
2019-04-16T05:32:48.291Z,7.85
2019-04-16T05:38:07.729Z,8.88
2019-04-16T05:43:29.982Z,9.62
2019-04-16T05:48:46.878Z,9.50
2019-04-16T05:54:12.397Z,9.68
2019-04-16T05:59:33.580Z,9.44
2019-04-16T06:04:50.429Z,9.81
2019-04-16T06:10:10.271Z,10.33
2019-04-16T06:15:46.731Z,10.54
2019-04-16T06:21:25.819Z,10.74
2019-04-16T06:26:47.407Z,12.22
2019-04-16T06:32:22.167Z,12.87
2019-04-16T06:37:45.603Z,13.92
2019-04-16T06:43:26.481Z,13.74
2019-04-16T06:48:50.724Z,13.11
2019-04-16T06:54:31.726Z,13.75
2019-04-16T06:59:59.473Z,14.08
2019-04-16T07:05:36.018Z,13.80
2019-04-16T07:10:56.138Z,14.08
2019-04-16T07:16:14.683Z,12.68
2019-04-16T07:21:33.305Z,13.97
2019-04-16T07:26:52.229Z,14.11
2019-04-16T07:32:13.872Z,13.84
2019-04-16T07:37:46.489Z,13.71
2019-04-16T07:43:06.692Z,13.60
2019-04-16T07:48:32.971Z,12.91
2019-04-16T07:53:53.232Z,14.06
2019-04-16T07:59:11.788Z,13.90
2019-04-16T08:04:35.310Z,14.52
2019-04-16T08:09:50.756Z,14.96
2019-04-16T08:15:14.265Z,15.52
2019-04-16T08:20:30.107Z,15.69
2019-04-16T08:25:53.293Z,17.54
2019-04-16T08:31:12.650Z,15.09
2019-04-16T08:36:30.988Z,16.27
2019-04-16T08:41:52.366Z,16.14
2019-04-16T08:47:12.122Z,16.25
2019-04-16T08:52:30.784Z,16.62
2019-04-16T08:57:49.461Z,15.91
2019-04-16T09:03:07.969Z,16.54
2019-04-16T09:08:44.698Z,16.93
2019-04-16T09:14:04.667Z,17.23
2019-04-16T09:19:23.973Z,17.37
2019-04-16T09:24:44.173Z,16.65
2019-04-16T09:30:04.655Z,16.50
2019-04-16T09:35:24.775Z,16.37
2019-04-16T09:41:00.231Z,16.31
2019-04-16T09:46:25.028Z,17.00
2019-04-16T09:51:39.714Z,17.07
2019-04-16T09:56:59.741Z,17.65
2019-04-16T10:02:20.628Z,18.33
2019-04-16T10:07:40.282Z,19.26
2019-04-16T10:12:59.770Z,17.94
2019-04-16T10:18:18.348Z,17.97
2019-04-16T10:23:38.613Z,19.30
2019-04-16T10:28:58.908Z,18.73
2019-04-16T10:34:17.635Z,18.61
2019-04-16T10:39:46.819Z,19.46
2019-04-16T10:45:24.432Z,19.69
2019-04-16T10:50:44.636Z,19.64
2019-04-16T10:56:21.260Z,19.91
2019-04-16T11:01:44.652Z,19.28
2019-04-16T11:07:04.921Z,18.94
2019-04-16T11:12:23.582Z,19.53
2019-04-16T11:17:42.308Z,19.53
2019-04-16T11:23:00.919Z,19.49
2019-04-16T11:28:19.559Z,19.11
2019-04-16T11:33:38.364Z,19.18
2019-04-16T11:38:56.880Z,19.02
2019-04-16T11:44:17.009Z,19.46
2019-04-16T11:49:35.813Z,19.78
2019-04-16T11:54:54.473Z,19.82
2019-04-16T12:00:15.257Z,19.30
2019-04-16T12:05:37.915Z,19.46
2019-04-16T12:11:01.117Z,19.32
2019-04-16T12:16:25.462Z,18.99
2019-04-16T12:22:01.070Z,20.05
2019-04-16T12:27:36.673Z,20.09
2019-04-16T12:32:59.791Z,19.42
2019-04-16T12:38:20.052Z,19.93
2019-04-16T12:43:43.126Z,20.02
2019-04-16T12:49:18.287Z,19.72
2019-04-16T12:54:58.343Z,19.69
2019-04-16T13:00:17.069Z,19.80
2019-04-16T13:05:46.443Z,19.49
2019-04-16T13:11:22.628Z,20.08
2019-04-16T13:16:58.871Z,19.91
2019-04-16T13:22:21.729Z,19.90
2019-04-16T13:27:41.665Z,19.60
2019-04-16T13:33:00.148Z,20.28
2019-04-16T13:38:20.364Z,20.30
2019-04-16T13:43:43.245Z,19.97
2019-04-16T13:49:03.497Z,19.98
2019-04-16T13:54:34.111Z,20.20
2019-04-16T13:59:56.767Z,20.29
2019-04-16T14:05:15.625Z,20.36
2019-04-16T14:10:34.435Z,19.97
2019-04-16T14:15:52.924Z,19.55
2019-04-16T14:21:11.461Z,19.57
2019-04-16T14:26:30.080Z,19.96
2019-04-16T14:31:49.104Z,20.09
2019-04-16T14:37:08.147Z,19.67
2019-04-16T14:42:26.788Z,20.17
2019-04-16T14:47:45.402Z,19.41
2019-04-16T14:53:04.043Z,19.28
2019-04-16T14:58:27.213Z,19.48
2019-04-16T15:03:50.330Z,19.73
2019-04-16T15:09:22.612Z,19.52
2019-04-16T15:14:42.860Z,19.62
2019-04-16T15:20:19.021Z,19.65
2019-04-16T15:25:55.999Z,19.44
2019-04-16T15:31:25.470Z,19.13
2019-04-16T15:36:55.003Z,19.07
2019-04-16T15:42:25.373Z,19.11
2019-04-16T15:48:03.711Z,19.43
2019-04-16T15:53:29.692Z,19.45
2019-04-16T15:58:49.807Z,19.14
2019-04-16T16:04:10.044Z,19.20
2019-04-16T16:09:41.097Z,19.21
2019-04-16T16:14:59.381Z,18.52
2019-04-16T16:20:18.188Z,18.33
2019-04-16T16:25:41.118Z,18.10
2019-04-16T16:30:57.668Z,17.95
2019-04-16T16:36:16.208Z,17.76
2019-04-16T16:41:34.765Z,17.73
2019-04-16T16:46:57.417Z,17.70
2019-04-16T16:52:33.202Z,17.60
2019-04-16T16:57:56.193Z,17.65
2019-04-16T17:03:25.178Z,17.51
2019-04-16T17:08:43.730Z,17.36
2019-04-16T17:14:03.146Z,17.24
2019-04-16T17:19:22.139Z,17.19
2019-04-16T17:24:40.767Z,16.99
2019-04-16T17:29:59.320Z,16.67
2019-04-16T17:35:18.027Z,16.11
2019-04-16T17:40:43.968Z,15.80
2019-04-16T17:46:12.934Z,15.60
2019-04-16T17:51:44.815Z,15.32
2019-04-16T17:57:05.200Z,15.16
2019-04-16T18:02:34.372Z,14.97
2019-04-16T18:08:10.695Z,14.73
2019-04-16T18:13:32.176Z,14.42
2019-04-16T18:18:52.805Z,14.21
2019-04-16T18:24:22.017Z,14.08
2019-04-16T18:29:42.196Z,13.88
2019-04-16T18:35:05.262Z,13.74
2019-04-16T18:40:31.474Z,13.66
2019-04-16T18:46:08.475Z,13.53
2019-04-16T18:51:27.122Z,13.35
2019-04-16T18:56:45.732Z,13.11
2019-04-16T19:02:09.799Z,12.95
2019-04-16T19:07:28.432Z,12.84
2019-04-16T19:12:47.087Z,12.66
2019-04-16T19:18:18.537Z,12.57
2019-04-16T19:23:25.915Z,12.44
2019-04-16T19:28:45.659Z,12.34
2019-04-16T19:34:09.299Z,12.30
2019-04-16T19:39:24.633Z,12.29
2019-04-16T19:44:43.245Z,12.34
2019-04-16T19:50:01.800Z,12.39
2019-04-16T19:55:20.502Z,12.37
2019-04-16T20:00:39.283Z,12.38
2019-04-16T20:05:57.909Z,12.39
2019-04-16T20:11:20.403Z,12.32
2019-04-16T20:16:37.024Z,12.15
2019-04-16T20:21:55.569Z,11.95
2019-04-16T20:27:14.118Z,11.77
2019-04-16T20:32:34.384Z,11.63
2019-04-16T20:37:53.982Z,11.49
2019-04-16T20:43:13.276Z,11.32
2019-04-16T20:48:31.745Z,11.31
2019-04-16T20:53:50.300Z,11.11
2019-04-16T20:59:08.865Z,10.91
2019-04-16T21:04:27.522Z,10.73
2019-04-16T21:09:46.069Z,10.60
2019-04-16T21:15:05.782Z,10.50
2019-04-16T21:20:24.395Z,10.48
2019-04-16T21:25:45.901Z,10.41
2019-04-16T21:31:04.949Z,10.27
2019-04-16T21:36:43.558Z,10.21
2019-04-16T21:42:03.299Z,10.16
2019-04-16T21:47:23.595Z,9.94
2019-04-16T21:52:42.483Z,9.78
2019-04-16T21:58:01.098Z,9.49
2019-04-16T22:03:21.403Z,9.39
2019-04-16T22:08:39.942Z,9.40
2019-04-16T22:13:58.413Z,9.35
2019-04-16T22:19:16.957Z,9.44
2019-04-16T22:24:35.566Z,9.32
2019-04-16T22:29:54.185Z,9.13
2019-04-16T22:35:12.792Z,8.87
2019-04-16T22:40:39.101Z,8.87
2019-04-16T22:46:02.432Z,8.92
2019-04-16T22:51:20.901Z,8.94
2019-04-16T22:56:44.278Z,8.89
2019-04-16T23:02:04.804Z,8.69
2019-04-16T23:07:23.370Z,8.74
2019-04-16T23:12:41.927Z,8.84
2019-04-16T23:18:00.460Z,8.76
2019-04-16T23:23:19.361Z,8.74
2019-04-16T23:28:39.769Z,8.82
2019-04-16T23:33:58.211Z,8.89
2019-04-16T23:39:16.825Z,8.99
2019-04-16T23:44:40.186Z,9.05
2019-04-16T23:50:00.316Z,9.12
2019-04-16T23:55:23.260Z,8.94
